createdAt,value
2022-08-08T05:46:29.499Z,65.50
2022-08-08T05:49:10.328Z,64.54
2022-08-08T05:51:48.877Z,64.74
2022-08-08T05:54:28.850Z,64.74
2022-08-08T05:57:57.525Z,64.27
2022-08-08T06:00:22.654Z,63.87
2022-08-08T06:03:23.635Z,63.46
2022-08-08T06:06:06.524Z,63.20
2022-08-08T06:08:55.088Z,62.80
2022-08-08T06:11:31.635Z,61.37
2022-08-08T06:13:59.400Z,61.36
2022-08-08T06:16:30.367Z,61.47
2022-08-08T06:19:10.358Z,61.13
2022-08-08T06:21:51.852Z,60.36
2022-08-08T06:24:35.894Z,59.53
2022-08-08T06:27:06.300Z,58.76
2022-08-08T06:30:01.054Z,58.13
2022-08-08T06:32:47.724Z,58.28
2022-08-08T06:36:00.625Z,57.50
2022-08-08T06:38:09.410Z,57.66
2022-08-08T06:40:48.407Z,56.49
2022-08-08T06:43:30.699Z,56.94
2022-08-08T06:46:09.144Z,56.31
2022-08-08T06:48:42.435Z,55.78
2022-08-08T06:51:13.280Z,56.11
2022-08-08T06:53:51.258Z,55.21
2022-08-08T06:56:26.330Z,55.76
2022-08-08T06:58:54.541Z,55.40
2022-08-08T07:02:17.902Z,54.95
2022-08-08T07:04:40.634Z,55.36
2022-08-08T07:07:16.204Z,54.96
2022-08-08T07:10:07.924Z,54.58
2022-08-08T07:12:47.339Z,53.77
2022-08-08T07:16:07.072Z,53.89
2022-08-08T07:18:57.523Z,53.91
2022-08-08T07:21:32.118Z,53.77
2022-08-08T07:24:09.537Z,53.51
2022-08-08T07:26:53.017Z,53.27
2022-08-08T07:29:59.562Z,53.15
2022-08-08T07:32:10.622Z,52.58
2022-08-08T07:34:59.610Z,52.45
2022-08-08T07:37:42.629Z,51.20
2022-08-08T07:40:30.082Z,51.01
2022-08-08T07:43:09.358Z,50.88
2022-08-08T07:46:05.965Z,50.22
2022-08-08T07:48:30.915Z,50.07
2022-08-08T07:51:01.003Z,49.70
2022-08-08T07:54:03.117Z,49.86
2022-08-08T07:56:50.017Z,49.59
2022-08-08T07:59:21.059Z,49.18
2022-08-08T08:02:36.286Z,48.03
2022-08-08T08:04:49.240Z,48.71
2022-08-08T08:07:25.892Z,48.91
2022-08-08T08:10:02.738Z,48.15
2022-08-08T08:12:38.642Z,48.59
2022-08-08T08:15:15.197Z,48.34
2022-08-08T08:17:55.481Z,48.09
2022-08-08T08:20:29.855Z,47.64
2022-08-08T08:22:58.631Z,47.81
2022-08-08T08:25:40.957Z,47.40
2022-08-08T08:28:16.994Z,48.39
2022-08-08T08:30:49.345Z,48.78
2022-08-08T08:33:17.631Z,48.21
2022-08-08T08:36:18.826Z,49.99
2022-08-08T08:38:35.966Z,48.74
2022-08-08T08:41:12.995Z,49.53
2022-08-08T08:43:46.367Z,48.63
2022-08-08T08:46:18.941Z,48.65
2022-08-08T08:48:49.406Z,49.11
2022-08-08T08:51:18.949Z,47.73
2022-08-08T08:54:00.051Z,47.43
2022-08-08T08:56:36.232Z,47.28
2022-08-08T08:59:15.348Z,47.87
2022-08-08T09:01:56.376Z,47.24
2022-08-08T09:04:38.582Z,46.44
2022-08-08T09:07:19.979Z,46.66
2022-08-08T09:09:55.374Z,47.36
2022-08-08T09:12:28.397Z,48.24
2022-08-08T09:14:58.443Z,46.64
2022-08-08T09:17:41.203Z,46.17
2022-08-08T09:21:59.985Z,46.92
2022-08-08T09:23:01.223Z,46.89
2022-08-08T09:25:35.957Z,46.10
2022-08-08T09:28:35.359Z,46.21
2022-08-08T09:31:16.356Z,44.26
2022-08-08T09:34:06.236Z,45.36
2022-08-08T09:36:39.492Z,44.92
2022-08-08T09:39:15.517Z,44.51
2022-08-08T09:42:19.862Z,43.77
2022-08-08T09:45:55.490Z,42.38
2022-08-08T09:48:27.014Z,43.63
2022-08-08T09:51:05.169Z,42.67
2022-08-08T09:53:56.578Z,43.33
2022-08-08T09:56:37.203Z,42.97
2022-08-08T09:59:40.393Z,43.28
2022-08-08T10:02:02.993Z,42.54
2022-08-08T10:04:42.139Z,42.86
2022-08-08T10:07:15.751Z,42.40
2022-08-08T10:10:00.321Z,42.55
2022-08-08T10:12:53.004Z,42.69
2022-08-08T10:15:21.340Z,41.98
2022-08-08T10:17:56.768Z,42.47
2022-08-08T10:20:57.767Z,42.84
2022-08-08T10:23:58.742Z,42.16
2022-08-08T10:26:57.091Z,42.65
2022-08-08T10:29:56.722Z,42.31
2022-08-08T10:32:37.546Z,42.26
2022-08-08T10:36:07.178Z,42.81
2022-08-08T10:38:08.312Z,42.42
2022-08-08T10:40:38.462Z,41.56
2022-08-08T10:43:06.599Z,41.03
2022-08-08T10:45:43.029Z,40.66
2022-08-08T10:48:56.038Z,40.86
2022-08-08T10:51:22.092Z,40.19
2022-08-08T10:53:57.391Z,40.41
2022-08-08T10:56:27.010Z,39.70
2022-08-08T10:58:58.699Z,39.39
2022-08-08T11:01:30.105Z,39.81
2022-08-08T11:04:04.410Z,39.94
2022-08-08T11:06:34.360Z,40.06
2022-08-08T11:09:09.631Z,38.73
2022-08-08T11:12:05.382Z,37.25
2022-08-08T11:14:32.632Z,36.33
2022-08-08T11:16:59.740Z,37.47
2022-08-08T11:19:28.139Z,37.21
2022-08-08T11:21:58.862Z,36.67
2022-08-08T11:24:29.006Z,36.76
2022-08-08T11:27:01.340Z,36.70
2022-08-08T11:30:04.108Z,37.08
2022-08-08T11:32:42.993Z,35.74
2022-08-08T11:35:27.162Z,34.15
2022-08-08T11:38:36.497Z,34.44
2022-08-08T11:40:52.384Z,32.66
2022-08-08T11:43:21.602Z,32.15
2022-08-08T11:46:14.441Z,32.28
2022-08-08T11:48:40.049Z,32.26
2022-08-08T11:51:29.585Z,31.37
2022-08-08T11:54:01.064Z,30.85
2022-08-08T11:56:34.764Z,29.24
2022-08-08T11:59:10.087Z,28.86
2022-08-08T12:01:37.109Z,29.35
2022-08-08T12:04:06.943Z,29.10
2022-08-08T12:06:33.991Z,30.28
2022-08-08T12:09:08.106Z,29.67
2022-08-08T12:11:43.987Z,28.46
2022-08-08T12:14:22.875Z,27.66
2022-08-08T12:16:52.434Z,26.84
2022-08-08T12:19:37.632Z,27.19
2022-08-08T12:22:13.234Z,27.16
2022-08-08T12:24:54.349Z,25.82
2022-08-08T12:27:26.745Z,25.95
2022-08-08T12:29:59.911Z,26.46
2022-08-08T12:32:31.393Z,26.29
2022-08-08T12:35:04.895Z,25.20
2022-08-08T12:38:01.387Z,24.17
2022-08-08T12:40:54.789Z,26.33
2022-08-08T12:43:32.945Z,27.15
2022-08-08T12:46:19.346Z,26.21
2022-08-08T12:49:21.875Z,26.67
2022-08-08T12:51:50.024Z,27.02
2022-08-08T12:54:41.039Z,26.17
2022-08-08T12:57:25.828Z,28.32
2022-08-08T13:00:05.745Z,28.51
2022-08-08T13:02:51.841Z,31.42
2022-08-08T13:05:26.597Z,32.20
2022-08-08T13:08:17.166Z,29.99
2022-08-08T13:10:56.371Z,28.89
2022-08-08T13:13:28.610Z,26.73
2022-08-08T13:16:25.158Z,26.46
2022-08-08T13:19:01.378Z,25.61
2022-08-08T13:21:58.343Z,25.02
2022-08-08T13:24:42.326Z,24.27
2022-08-08T13:27:13.831Z,23.30
2022-08-08T13:29:50.490Z,22.26
2022-08-08T13:32:20.889Z,23.85
2022-08-08T13:34:53.140Z,22.55
2022-08-08T13:37:51.870Z,22.38
2022-08-08T13:40:08.888Z,20.72
2022-08-08T13:42:35.767Z,20.31
2022-08-08T13:45:04.494Z,19.48
2022-08-08T13:47:31.433Z,20.99
2022-08-08T13:50:34.875Z,21.04
2022-08-08T13:52:52.034Z,20.50
2022-08-08T13:55:29.158Z,18.95
2022-08-08T13:58:08.302Z,19.38
2022-08-08T14:00:45.546Z,18.92
2022-08-08T14:03:53.581Z,20.75
2022-08-08T14:06:32.025Z,18.94
2022-08-08T14:08:58.356Z,19.67
2022-08-08T14:11:28.029Z,19.58
2022-08-08T14:13:59.538Z,18.74
2022-08-08T14:16:27.860Z,20.82
2022-08-08T14:18:59.368Z,20.65
2022-08-08T14:21:52.293Z,21.79
2022-08-08T14:24:33.964Z,20.68
2022-08-08T14:27:01.876Z,19.16
2022-08-08T14:29:34.522Z,19.67
2022-08-08T14:32:12.722Z,18.88
2022-08-08T14:34:43.629Z,19.42
2022-08-08T14:37:17.408Z,19.44
2022-08-08T14:39:50.919Z,19.80
2022-08-08T14:42:33.916Z,19.91
2022-08-08T14:45:10.110Z,20.58
2022-08-08T14:47:57.360Z,19.58
2022-08-08T14:50:38.679Z,18.81
2022-08-08T14:53:14.236Z,18.78
2022-08-08T14:55:42.863Z,18.31
2022-08-08T14:58:16.093Z,17.89
2022-08-08T15:00:44.834Z,17.35
2022-08-08T15:03:14.573Z,17.54
2022-08-08T15:05:54.073Z,17.45
2022-08-08T15:08:34.314Z,18.49
2022-08-08T15:11:04.631Z,17.80
2022-08-08T15:13:39.737Z,17.65
2022-08-08T15:16:12.146Z,17.93
2022-08-08T15:18:50.119Z,17.82
2022-08-08T15:21:19.255Z,18.02
2022-08-08T15:23:50.526Z,16.71
2022-08-08T15:26:21.125Z,16.41
2022-08-08T15:28:54.212Z,16.55
2022-08-08T15:31:25.938Z,17.66
2022-08-08T15:34:18.557Z,17.46
2022-08-08T15:36:57.240Z,16.99
2022-08-08T15:39:23.939Z,16.60
2022-08-08T15:41:52.781Z,15.59
2022-08-08T15:44:21.114Z,17.66
2022-08-08T15:46:50.760Z,16.45
2022-08-08T15:49:20.616Z,16.74
2022-08-08T15:51:49.831Z,17.02
2022-08-08T15:54:18.992Z,15.94
2022-08-08T15:57:07.479Z,16.16
2022-08-08T16:00:25.819Z,17.13
2022-08-08T16:02:30.564Z,17.64
2022-08-08T16:04:59.168Z,18.24
2022-08-08T16:07:35.851Z,17.30
2022-08-08T16:13:15.125Z,17.22
2022-08-08T16:13:27.782Z,16.34
2022-08-08T16:15:57.661Z,16.87
2022-08-08T16:18:35.808Z,18.56
2022-08-08T16:21:02.467Z,19.45
2022-08-08T16:23:31.405Z,19.97
2022-08-08T16:26:12.713Z,22.09
2022-08-08T16:28:39.488Z,22.14
2022-08-08T16:31:09.266Z,22.48
2022-08-08T16:33:38.416Z,23.40
2022-08-08T16:36:05.813Z,23.76
2022-08-08T16:38:40.445Z,23.89
2022-08-08T16:41:12.223Z,24.59
2022-08-08T16:43:49.071Z,24.02
2022-08-08T16:46:37.112Z,24.50
2022-08-08T16:49:04.646Z,24.34
2022-08-08T16:55:00.750Z,25.24
2022-08-08T16:55:03.546Z,25.53
2022-08-08T16:58:12.185Z,25.43
2022-08-08T16:59:53.720Z,25.64
2022-08-08T17:02:32.514Z,25.67
2022-08-08T17:05:12.825Z,26.13
2022-08-08T17:07:40.513Z,26.93
2022-08-08T17:10:11.667Z,25.57
2022-08-08T17:12:41.500Z,25.94
2022-08-08T17:15:17.507Z,25.22
2022-08-08T17:18:03.713Z,25.62
2022-08-08T17:20:39.453Z,26.17
2022-08-08T17:23:16.477Z,24.94
2022-08-08T17:25:53.862Z,26.53
2022-08-08T17:28:34.645Z,25.89
2022-08-08T17:31:39.152Z,26.04
2022-08-08T17:34:49.090Z,26.49
2022-08-08T17:37:00.462Z,25.39
2022-08-08T17:40:04.696Z,25.60
2022-08-08T17:42:15.022Z,27.13
2022-08-08T17:44:44.194Z,26.80
2022-08-08T17:47:23.282Z,25.51
2022-08-08T17:49:52.951Z,26.91
2022-08-08T17:52:24.013Z,26.54
2022-08-08T17:54:55.767Z,26.85
2022-08-08T17:57:22.892Z,27.21
2022-08-08T17:59:49.537Z,27.33
2022-08-08T18:02:29.121Z,28.62
2022-08-08T18:04:58.519Z,28.13
2022-08-08T18:08:02.424Z,27.70
2022-08-08T18:10:15.278Z,28.33
2022-08-08T18:12:42.754Z,28.50
2022-08-08T18:15:12.066Z,28.57
2022-08-08T18:18:09.323Z,29.12
2022-08-08T18:20:43.910Z,28.99
2022-08-08T18:23:15.040Z,29.31
2022-08-08T18:25:43.478Z,29.59
2022-08-08T18:28:13.266Z,29.60
2022-08-08T18:30:41.796Z,31.21
2022-08-08T18:33:36.342Z,31.17
2022-08-08T18:36:03.245Z,31.09
2022-08-08T18:38:34.189Z,30.94
2022-08-08T18:41:03.168Z,31.02
2022-08-08T18:43:42.820Z,30.33
2022-08-08T18:46:55.690Z,30.33
2022-08-08T18:48:58.003Z,30.72
2022-08-08T18:51:52.401Z,31.71
2022-08-08T18:54:24.781Z,30.95
2022-08-08T18:56:57.186Z,32.08
2022-08-08T18:59:24.145Z,31.74
2022-08-08T19:02:25.426Z,33.53
2022-08-08T19:04:38.157Z,34.05
2022-08-08T19:07:05.004Z,33.49
2022-08-08T19:09:49.454Z,33.72
2022-08-08T19:12:19.146Z,34.87
2022-08-08T19:14:46.561Z,33.34
2022-08-08T19:17:13.426Z,34.27
2022-08-08T19:20:02.839Z,34.59
2022-08-08T19:22:29.992Z,34.66
2022-08-08T19:26:00.989Z,34.06
2022-08-08T19:27:57.343Z,33.82
2022-08-08T19:30:27.999Z,34.79
2022-08-08T19:32:58.039Z,33.93
2022-08-08T19:35:45.234Z,34.92
2022-08-08T19:38:16.434Z,34.54
2022-08-08T19:40:44.021Z,33.87
2022-08-08T19:43:11.920Z,34.85
2022-08-08T19:45:59.565Z,34.98
2022-08-08T19:48:29.354Z,34.14
2022-08-08T19:51:01.642Z,33.96
2022-08-08T19:53:53.424Z,34.00
2022-08-08T19:56:25.470Z,34.05
2022-08-08T19:59:04.322Z,34.53
2022-08-08T20:02:00.963Z,34.25
2022-08-08T20:04:23.553Z,33.45
2022-08-08T20:06:51.076Z,33.22
2022-08-08T20:09:22.975Z,34.13
2022-08-08T20:11:52.844Z,34.15
2022-08-08T20:14:33.351Z,34.84
2022-08-08T20:17:04.115Z,35.43
2022-08-08T20:19:34.869Z,37.01
2022-08-08T20:22:13.059Z,37.87
2022-08-08T20:24:48.281Z,37.91
2022-08-08T20:27:20.246Z,37.92
2022-08-08T20:30:00.495Z,37.89
2022-08-08T20:32:29.529Z,38.46
2022-08-08T20:35:01.357Z,38.06
2022-08-08T20:37:46.891Z,39.32
2022-08-08T20:40:17.231Z,37.80
2022-08-08T20:42:54.710Z,37.74
2022-08-08T20:45:54.752Z,38.96
2022-08-08T20:48:09.428Z,38.62
2022-08-08T20:50:36.496Z,39.17
2022-08-08T20:53:06.870Z,38.75
2022-08-08T20:55:42.950Z,39.33
2022-08-08T20:58:13.997Z,39.38
2022-08-08T21:00:50.218Z,39.09
2022-08-08T21:03:17.372Z,40.12
2022-08-08T21:05:49.146Z,41.21
2022-08-08T21:08:36.017Z,40.67
2022-08-08T21:11:12.614Z,40.26
2022-08-08T21:13:42.099Z,39.98
2022-08-08T21:16:17.986Z,39.76
2022-08-08T21:18:47.805Z,39.84
2022-08-08T21:21:19.766Z,40.26
2022-08-08T21:23:58.916Z,39.89
2022-08-08T21:26:30.103Z,39.57
2022-08-08T21:29:01.073Z,39.96
2022-08-08T21:31:53.162Z,40.83
2022-08-08T21:34:18.834Z,40.31
2022-08-08T21:36:53.870Z,40.22
2022-08-08T21:39:23.894Z,40.27
2022-08-08T21:42:08.661Z,40.50
2022-08-08T21:44:37.923Z,40.62
2022-08-08T21:48:04.262Z,40.84
2022-08-08T21:50:11.746Z,41.37
2022-08-08T21:54:30.978Z,40.91
2022-08-08T21:56:26.786Z,41.01
2022-08-08T21:58:13.568Z,41.33
2022-08-08T22:00:41.143Z,41.27
2022-08-08T22:03:07.995Z,41.79
2022-08-08T22:05:41.697Z,41.82
2022-08-08T22:08:08.457Z,41.75
2022-08-08T22:10:35.547Z,41.75
2022-08-08T22:13:18.805Z,41.92
2022-08-08T22:15:59.770Z,41.83
2022-08-08T22:18:31.609Z,43.16
2022-08-08T22:21:11.108Z,42.26
2022-08-08T22:23:49.359Z,42.34
2022-08-08T22:26:27.955Z,43.24
2022-08-08T22:29:14.411Z,42.27
2022-08-08T22:32:01.734Z,42.82
2022-08-08T22:34:39.283Z,42.64
2022-08-08T22:37:07.103Z,43.17
2022-08-08T22:40:00.398Z,42.94
2022-08-08T22:42:31.861Z,43.10
2022-08-08T22:45:01.736Z,43.38
2022-08-08T22:47:34.558Z,43.52
2022-08-08T22:50:21.645Z,43.69
2022-08-08T22:53:22.609Z,43.82
2022-08-08T22:55:55.993Z,43.74
2022-08-08T22:58:33.180Z,44.03
2022-08-08T23:01:26.891Z,43.97
2022-08-08T23:03:57.541Z,44.24
2022-08-08T23:06:27.251Z,44.46
2022-08-08T23:08:59.047Z,44.48
2022-08-08T23:11:58.080Z,44.51
2022-08-08T23:14:20.544Z,44.76
2022-08-08T23:16:54.712Z,44.55
2022-08-08T23:19:32.231Z,44.83
2022-08-08T23:22:01.113Z,45.11
2022-08-08T23:24:28.220Z,44.96
2022-08-08T23:27:05.495Z,45.33
2022-08-08T23:29:32.671Z,45.26
2022-08-08T23:31:59.547Z,45.21
2022-08-08T23:34:29.414Z,45.49
2022-08-08T23:36:58.406Z,45.66
2022-08-08T23:39:31.910Z,45.88
2022-08-08T23:42:00.779Z,46.15
2022-08-08T23:44:28.747Z,45.79
2022-08-08T23:49:00.273Z,45.96
2022-08-08T23:49:49.620Z,46.21
2022-08-08T23:52:30.341Z,46.42
2022-08-08T23:55:07.396Z,46.38
2022-08-08T23:57:52.934Z,46.09
